Dickeyville, Wisconsin
Current Conditions -  °F | °C
As of 10:35 PM on Sunday 21 Dec 2014 (Local Time) from KPVB Reporting Station
Overcast Overcast  
Wind Chill: 24°   Ceiling: 1800
Heat Index: 34°   Visibility: 5mi
Dew Point: 32°   Wind: 16mph
Humidity: 92%   Direction: 150°SSE
Pressure: 29.91"   Gusts: NA
Location:  42.63°N, 90.59°W
Report Text: KPVB 220435Z AUTO 15014KT 5SM SCT012 BKN018 OVC046 01/00 A2991 RMK AO1 T00110000
Loading
Personal Weather Stations






























Interactive Weather Map New forecast layout! Learn more

10-Day Weather Forecast

Advertisements
Track Severe Weather on mobile